Time;durP1;ratioP1;P1;durP2;ratioP2;P2;SDS_P1;SDS_P2;PMS_P1;PMS_P2;Temp;Humidity;BMP_temperature;BMP_pressure;BME280_temperature;BME280_humidity;BME280_pressure;Samples;Min_cycle;Max_cycle;Signal;HPM_P1;HPM_P2
2023/06/24 00:00:12;;;;;;;12.00;9.38;;;18.50;57.20;;;;;;5090487;28;20454;-71
2023/06/24 00:02:38;;;;;;;12.00;9.25;;;18.50;99.90;;;;;;5092523;28;20438;-71
2023/06/24 00:05:06;;;;;;;12.15;8.98;;;18.50;99.90;;;;;;5091956;28;20974;-71
2023/06/24 00:07:31;;;;;;;12.77;8.98;;;18.40;1.00;;;;;;5091122;28;20410;-71
2023/06/24 00:09:57;;;;;;;11.18;8.70;;;18.40;74.40;;;;;;5073291;28;20895;-71
2023/06/24 00:12:23;;;;;;;13.07;8.97;;;18.40;99.90;;;;;;5090503;28;20497;-72
2023/06/24 00:14:49;;;;;;;12.30;9.77;;;18.40;99.90;;;;;;5090686;28;20425;-71
2023/06/24 00:17:16;;;;;;;12.30;9.50;;;18.30;99.90;;;;;;5091801;28;20855;-71
2023/06/24 00:19:43;;;;;;;11.10;9.60;;;18.30;99.90;;;;;;5091620;28;20398;-71
2023/06/24 00:22:09;;;;;;;13.95;10.02;;;18.30;99.90;;;;;;5090333;28;20414;-71
2023/06/24 00:24:35;;;;;;;13.40;10.07;;;18.20;99.90;;;;;;5091252;28;20432;-71
2023/06/24 00:27:00;;;;;;;15.60;10.40;;;18.20;99.90;;;;;;5091370;28;20485;-71
2023/06/24 00:29:26;;;;;;;13.02;10.70;;;18.20;99.90;;;;;;5095950;28;20491;-71
2023/06/24 00:31:51;;;;;;;14.20;10.70;;;18.20;1.00;;;;;;5099683;28;20806;-71
2023/06/24 00:34:19;;;;;;;13.40;10.73;;;18.10;1.00;;;;;;5089287;28;20477;-71
2023/06/24 00:36:46;;;;;;;13.73;11.02;;;18.10;1.00;;;;;;5090096;28;20459;-71
2023/06/24 00:39:12;;;;;;;16.38;11.77;;;18.10;1.00;;;;;;5091606;28;20425;-71
2023/06/24 00:41:38;;;;;;;17.97;11.53;;;18.00;51.70;;;;;;5072733;28;20509;-71
2023/06/24 00:44:04;;;;;;;15.23;11.77;;;18.00;16.40;;;;;;5073668;28;20414;-71
2023/06/24 00:46:33;;;;;;;14.53;11.43;;;17.90;99.90;;;;;;5092006;28;20471;-72
2023/06/24 00:48:59;;;;;;;15.13;11.55;;;17.90;99.90;;;;;;5089334;28;20420;-72
2023/06/24 00:51:26;;;;;;;16.05;11.48;;;17.90;99.90;;;;;;5091315;28;20403;-71
2023/06/24 00:53:54;;;;;;;15.80;12.02;;;17.90;99.90;;;;;;5090299;28;20406;-72
2023/06/24 00:56:23;;;;;;;17.52;11.55;;;17.90;99.90;;;;;;5092140;28;20394;-71
2023/06/24 00:58:50;;;;;;;14.87;11.37;;;17.80;99.90;;;;;;5088953;28;20421;-72
2023/06/24 01:01:17;;;;;;;13.70;11.27;;;17.80;99.90;;;;;;5090946;28;20413;-72
2023/06/24 01:03:42;;;;;;;16.92;12.05;;;17.80;99.90;;;;;;5093621;28;20430;-71
2023/06/24 01:06:09;;;;;;;14.07;11.20;;;17.70;99.90;;;;;;5091756;28;20537;-71
2023/06/24 01:08:35;;;;;;;13.48;10.88;;;17.70;99.90;;;;;;5092973;28;20406;-71
2023/06/24 01:11:01;;;;;;;13.97;11.30;;;17.70;99.90;;;;;;5092215;28;20876;-71
2023/06/24 01:13:27;;;;;;;13.77;11.27;;;17.70;99.90;;;;;;5091300;28;20450;-72
2023/06/24 01:15:53;;;;;;;14.88;11.43;;;17.60;99.90;;;;;;5088890;28;20409;-71
2023/06/24 01:18:34;;;;;;;13.83;10.90;;;17.60;1.00;;;;;;5092277;28;20406;-71
2023/06/24 01:21:10;;;;;;;15.70;11.82;;;17.60;1.00;;;;;;5071526;28;20518;-72
2023/06/24 01:24:03;;;;;;;14.60;11.52;;;17.50;1.00;;;;;;5089076;28;20406;-72
2023/06/24 01:26:49;;;;;;;13.82;10.95;;;17.50;1.00;;;;;;5090429;28;20410;-72
2023/06/24 01:29:50;;;;;;;14.60;11.57;;;17.50;1.00;;;;;;5089418;28;20414;-72
2023/06/24 01:32:28;;;;;;;14.43;10.57;;;17.50;1.00;;;;;;5091204;28;20508;-72
2023/06/24 01:35:23;;;;;;;12.97;10.40;;;17.40;1.00;;;;;;5099961;28;20450;-71
2023/06/24 01:37:51;;;;;;;13.57;11.57;;;17.40;1.00;;;;;;5086999;28;20838;-71
2023/06/24 01:40:27;;;;;;;13.13;11.13;;;17.40;1.00;;;;;;5071301;28;20406;-71
2023/06/24 01:42:55;;;;;;;16.85;11.70;;;17.40;8.90;;;;;;5089892;28;20772;-71
2023/06/24 01:45:24;;;;;;;15.23;11.07;;;17.30;38.40;;;;;;5088768;28;20456;-71
2023/06/24 01:47:59;;;;;;;14.57;10.93;;;17.30;65.40;;;;;;5089715;28;20970;-72
2023/06/24 01:50:27;;;;;;;14.95;11.45;;;17.30;99.00;;;;;;5089784;28;20436;-71
2023/06/24 01:52:54;;;;;;;14.93;11.45;;;17.30;99.90;;;;;;5089978;28;20794;-71
2023/06/24 01:55:21;;;;;;;15.10;11.23;;;17.30;99.90;;;;;;5089097;28;20448;-71
2023/06/24 01:57:49;;;;;;;15.40;11.20;;;17.20;99.90;;;;;;5089748;28;20410;-71
2023/06/24 02:00:16;;;;;;;14.75;11.63;;;17.20;99.90;;;;;;5088069;28;20410;-71
2023/06/24 02:02:43;;;;;;;14.50;11.10;;;17.20;99.90;;;;;;5070642;28;20460;-72
2023/06/24 02:05:09;;;;;;;16.02;11.85;;;17.20;99.90;;;;;;5089806;28;20422;-72
2023/06/24 02:07:37;;;;;;;16.03;11.83;;;17.20;99.90;;;;;;5072292;28;20404;-71
2023/06/24 02:10:03;;;;;;;15.88;11.40;;;17.20;99.90;;;;;;5072222;28;20404;-71
2023/06/24 02:12:30;;;;;;;15.85;11.70;;;17.20;99.90;;;;;;5090370;28;20406;-71
2023/06/24 02:14:57;;;;;;;15.85;11.60;;;17.20;99.90;;;;;;5089012;28;20410;-71
2023/06/24 02:17:26;;;;;;;15.18;11.43;;;17.10;99.90;;;;;;5088936;28;20413;-71
2023/06/24 02:19:53;;;;;;;14.85;11.50;;;17.20;99.90;;;;;;5087294;28;20406;-71
2023/06/24 02:22:21;;;;;;;13.93;11.45;;;17.10;99.90;;;;;;5089116;28;20402;-71
2023/06/24 02:24:49;;;;;;;14.80;11.57;;;17.10;99.90;;;;;;5075944;28;20792;-72
2023/06/24 02:27:15;;;;;;;14.65;11.30;;;17.10;99.90;;;;;;5087921;28;20410;-71
2023/06/24 02:29:42;;;;;;;16.85;11.50;;;17.00;99.90;;;;;;5089254;28;20414;-71
2023/06/24 02:32:09;;;;;;;14.20;11.05;;;17.00;99.90;;;;;;5088392;28;20409;-71
2023/06/24 02:34:34;;;;;;;15.88;11.10;;;17.00;99.90;;;;;;5088547;28;20409;-71
2023/06/24 02:37:00;;;;;;;14.23;11.20;;;17.00;99.90;;;;;;5089606;28;20409;-72
2023/06/24 02:39:25;;;;;;;13.45;10.68;;;17.00;99.90;;;;;;5089597;28;21033;-71
2023/06/24 02:41:51;;;;;;;14.60;11.07;;;17.00;99.90;;;;;;5089099;28;20429;-71
2023/06/24 02:44:17;;;;;;;15.43;11.75;;;16.90;99.90;;;;;;5077141;28;20437;-71
2023/06/24 02:46:44;;;;;;;13.90;11.00;;;16.90;99.90;;;;;;5088824;28;20406;-71
2023/06/24 02:49:13;;;;;;;14.63;11.30;;;16.90;99.90;;;;;;5087458;28;20444;-71
2023/06/24 02:51:39;;;;;;;13.20;11.02;;;16.90;99.90;;;;;;5089935;28;20406;-71
2023/06/24 02:54:06;;;;;;;14.75;11.32;;;16.90;99.90;;;;;;5069182;28;20428;-71
2023/06/24 02:56:32;;;;;;;15.35;11.27;;;16.80;99.90;;;;;;5080925;28;20393;-71
2023/06/24 02:58:58;;;;;;;14.70;11.50;;;16.80;99.90;;;;;;5088288;28;21023;-72
2023/06/24 03:01:25;;;;;;;14.38;11.40;;;16.80;99.90;;;;;;5095285;28;20400;-71
2023/06/24 03:03:55;;;;;;;15.23;11.52;;;16.80;99.90;;;;;;5090925;28;20442;-72
2023/06/24 03:06:22;;;;;;;16.10;11.95;;;16.80;99.90;;;;;;5092240;28;20406;-71
2023/06/24 03:08:49;;;;;;;16.55;12.55;;;16.80;99.90;;;;;;5093826;28;20857;-72
2023/06/24 03:11:15;;;;;;;16.08;12.50;;;16.80;99.90;;;;;;5086356;28;20471;-72
2023/06/24 03:13:41;;;;;;;17.77;12.85;;;16.70;99.90;;;;;;5072431;28;20845;-72
2023/06/24 03:16:12;;;;;;;16.42;12.80;;;16.70;99.90;;;;;;5081432;28;20414;-72
2023/06/24 03:18:41;;;;;;;17.13;12.75;;;16.70;99.90;;;;;;5087004;28;20907;-72
2023/06/24 03:21:08;;;;;;;16.10;12.93;;;16.70;99.90;;;;;;5069373;28;20760;-72
2023/06/24 03:23:33;;;;;;;18.33;12.95;;;16.70;99.90;;;;;;5088578;28;20855;-72
2023/06/24 03:25:59;;;;;;;16.92;13.02;;;16.70;99.90;;;;;;5071067;28;20455;-71
2023/06/24 03:28:25;;;;;;;16.67;12.90;;;16.70;99.90;;;;;;5089230;28;20433;-71
2023/06/24 03:30:50;;;;;;;16.25;12.65;;;16.70;99.90;;;;;;5091211;28;20393;-71
2023/06/24 03:33:16;;;;;;;15.20;12.70;;;16.70;99.90;;;;;;5093259;28;20402;-72
2023/06/24 03:35:45;;;;;;;16.83;12.98;;;16.70;99.90;;;;;;5091466;28;20416;-71
2023/06/24 03:38:11;;;;;;;16.30;13.10;;;16.70;99.90;;;;;;5094994;28;20409;-71
2023/06/24 03:40:37;;;;;;;19.27;13.13;;;16.70;99.90;;;;;;5091150;28;20898;-71
2023/06/24 03:43:03;;;;;;;19.02;13.45;;;16.70;99.90;;;;;;5065372;28;20470;-72
2023/06/24 03:45:28;;;;;;;17.30;13.30;;;16.60;99.90;;;;;;5075784;28;20522;-71
2023/06/24 03:47:54;;;;;;;18.70;14.00;;;16.60;99.90;;;;;;5071398;28;20479;-71
2023/06/24 03:50:19;;;;;;;19.07;13.60;;;16.60;99.90;;;;;;5099945;28;20764;-71
2023/06/24 03:52:45;;;;;;;18.23;13.70;;;16.70;99.90;;;;;;5079742;28;20404;-71
2023/06/24 03:55:11;;;;;;;19.55;14.57;;;16.70;99.90;;;;;;5107955;28;20408;-72
2023/06/24 03:57:37;;;;;;;18.13;14.03;;;16.60;99.90;;;;;;5107323;28;20393;-71
2023/06/24 04:00:16;;;;;;;16.88;13.77;;;16.70;99.90;;;;;;5088870;28;20465;-72
2023/06/24 04:02:45;;;;;;;20.27;14.05;;;16.70;99.90;;;;;;5098099;28;20525;-71
2023/06/24 04:05:11;;;;;;;17.80;14.27;;;16.70;99.90;;;;;;5068809;28;20470;-71
2023/06/24 04:07:36;;;;;;;20.60;14.43;;;16.70;99.90;;;;;;5086996;28;20453;-73
2023/06/24 04:10:04;;;;;;;17.67;14.88;;;16.80;99.90;;;;;;5087608;28;20398;-71
2023/06/24 04:12:29;;;;;;;20.98;14.73;;;16.80;99.90;;;;;;5087392;28;20418;-72
2023/06/24 04:14:55;;;;;;;21.63;15.13;;;16.80;99.90;;;;;;5085201;28;20414;-72
2023/06/24 04:17:21;;;;;;;19.33;14.30;;;16.80;99.90;;;;;;5085758;28;20887;-71
2023/06/24 04:19:46;;;;;;;19.50;15.05;;;16.80;99.90;;;;;;5092998;28;20394;-71
2023/06/24 04:22:12;;;;;;;19.90;14.48;;;16.80;99.90;;;;;;5085767;28;20410;-71
2023/06/24 04:24:38;;;;;;;18.23;14.37;;;16.80;99.90;;;;;;5086141;28;20823;-71
2023/06/24 04:27:05;;;;;;;20.15;14.13;;;16.80;99.90;;;;;;5089479;28;20402;-71
2023/06/24 04:29:31;;;;;;;20.13;13.90;;;16.80;99.90;;;;;;5091400;28;20398;-71
2023/06/24 04:31:57;;;;;;;20.13;13.97;;;16.80;99.90;;;;;;5091012;28;20421;-72
2023/06/24 04:34:22;;;;;;;20.10;13.80;;;16.90;99.90;;;;;;5089817;28;20492;-72
2023/06/24 04:36:48;;;;;;;19.30;13.80;;;16.90;99.90;;;;;;5090509;28;20410;-71
2023/06/24 04:39:13;;;;;;;17.83;13.27;;;16.90;99.90;;;;;;5091447;28;20798;-72
2023/06/24 04:41:39;;;;;;;19.17;14.07;;;17.00;1.00;;;;;;5089876;28;20462;-71
2023/06/24 04:44:05;;;;;;;21.93;14.50;;;17.00;1.00;;;;;;5091937;28;20413;-72
2023/06/24 04:46:32;;;;;;;18.97;13.97;;;17.10;1.00;;;;;;5090562;28;21220;-71
2023/06/24 04:48:58;;;;;;;18.65;13.70;;;17.10;1.00;;;;;;5091785;28;20406;-72
2023/06/24 04:51:23;;;;;;;20.27;13.35;;;17.20;1.00;;;;;;5090320;28;20402;-71
2023/06/24 04:53:49;;;;;;;17.20;12.40;;;17.30;1.00;;;;;;5075044;28;20408;-72
2023/06/24 04:56:15;;;;;;;16.60;12.77;;;17.40;1.00;;;;;;5110692;28;20426;-72
2023/06/24 04:58:40;;;;;;;18.48;12.48;;;17.40;1.00;;;;;;5094038;28;20396;-71
2023/06/24 05:01:06;;;;;;;17.83;13.27;;;17.50;99.90;;;;;;5091035;28;20402;-72
2023/06/24 05:03:31;;;;;;;20.33;12.13;;;17.60;99.90;;;;;;5090328;28;20501;-72
2023/06/24 05:05:57;;;;;;;19.42;12.70;;;17.60;99.90;;;;;;5089488;28;20429;-72
2023/06/24 05:08:22;;;;;;;18.50;12.10;;;17.60;99.90;;;;;;5090871;28;20447;-72
2023/06/24 05:10:48;;;;;;;16.73;11.70;;;17.70;99.90;;;;;;5090615;28;20455;-71
2023/06/24 05:13:14;;;;;;;17.75;12.45;;;17.80;99.90;;;;;;5090336;28;20413;-72
2023/06/24 05:15:39;;;;;;;18.83;12.50;;;17.90;99.90;;;;;;5089996;28;20434;-71
2023/06/24 05:18:05;;;;;;;19.15;12.02;;;17.90;99.90;;;;;;5090324;28;20392;-71
2023/06/24 05:20:30;;;;;;;16.17;12.35;;;18.00;99.90;;;;;;5091168;28;20398;-71
2023/06/24 05:22:56;;;;;;;16.83;11.73;;;18.00;99.90;;;;;;5088847;28;20487;-71
2023/06/24 05:25:22;;;;;;;15.10;11.95;;;18.10;99.90;;;;;;5090079;28;20425;-71
2023/06/24 05:27:48;;;;;;;17.63;11.03;;;18.10;99.90;;;;;;5072499;28;20461;-71
2023/06/24 05:30:14;;;;;;;18.45;11.90;;;18.10;99.90;;;;;;5090575;28;20410;-71
2023/06/24 05:32:40;;;;;;;19.30;12.13;;;18.10;99.90;;;;;;5090294;28;20409;-71
2023/06/24 05:35:06;;;;;;;15.47;10.80;;;18.10;99.90;;;;;;5089825;28;20406;-72
2023/06/24 05:37:31;;;;;;;18.42;11.32;;;18.10;99.90;;;;;;5089807;28;20900;-72
2023/06/24 05:40:01;;;;;;;19.33;11.60;;;18.10;99.90;;;;;;5088731;28;20410;-71
2023/06/24 05:42:26;;;;;;;14.30;10.50;;;18.20;99.90;;;;;;5090520;28;20409;-72
2023/06/24 05:44:52;;;;;;;15.33;10.53;;;18.20;99.90;;;;;;5088267;28;20434;-72
2023/06/24 05:47:18;;;;;;;15.55;10.52;;;18.30;99.90;;;;;;5088525;28;20497;-71
2023/06/24 05:49:43;;;;;;;14.40;10.57;;;18.30;99.90;;;;;;5090142;28;20406;-72
2023/06/24 05:52:09;;;;;;;14.37;10.00;;;18.40;99.90;;;;;;5058245;28;20421;-71
2023/06/24 05:54:34;;;;;;;13.48;9.60;;;18.50;99.90;;;;;;5088184;28;20488;-71
2023/06/24 05:57:00;;;;;;;15.10;9.97;;;18.60;99.90;;;;;;5088904;28;20490;-71
2023/06/24 05:59:25;;;;;;;13.43;10.37;;;18.60;99.90;;;;;;5089494;28;20740;-72
2023/06/24 06:01:51;;;;;;;15.25;10.35;;;18.70;99.90;;;;;;5088539;28;20458;-71
2023/06/24 06:04:17;;;;;;;14.50;10.47;;;18.80;99.90;;;;;;5088559;28;20960;-72
2023/06/24 06:06:42;;;;;;;13.87;10.03;;;18.90;88.10;;;;;;5089956;28;20402;-71
2023/06/24 06:09:08;;;;;;;13.25;10.02;;;19.00;83.20;;;;;;5071376;28;20410;-71
2023/06/24 06:11:33;;;;;;;12.37;9.33;;;19.10;81.80;;;;;;5089050;28;20417;-72
2023/06/24 06:13:59;;;;;;;12.43;9.37;;;19.10;97.10;;;;;;5088993;28;20418;-72
2023/06/24 06:16:25;;;;;;;12.23;9.40;;;19.30;95.90;;;;;;5088720;28;20410;-71
2023/06/24 06:18:50;;;;;;;12.27;8.60;;;19.40;69.90;;;;;;5087833;28;20414;-71
2023/06/24 06:21:16;;;;;;;10.45;7.80;;;19.50;71.20;;;;;;5089839;28;20405;-72
2023/06/24 06:23:42;;;;;;;10.80;8.07;;;19.60;45.30;;;;;;5089192;28;20401;-72
2023/06/24 06:26:07;;;;;;;9.48;7.28;;;19.80;1.00;;;;;;5089004;28;20430;-71
2023/06/24 06:28:33;;;;;;;12.43;7.70;;;20.00;1.00;;;;;;5089454;28;20410;-71
2023/06/24 06:30:59;;;;;;;8.57;7.17;;;20.20;99.90;;;;;;5090570;28;20763;-71
2023/06/24 06:33:24;;;;;;;9.73;7.25;;;20.40;99.90;;;;;;5089979;28;20488;-72
2023/06/24 06:35:50;;;;;;;9.60;6.27;;;20.70;1.00;;;;;;5090630;28;20390;-72
2023/06/24 06:38:15;;;;;;;8.73;5.70;;;20.80;99.90;;;;;;5090186;28;20399;-71
2023/06/24 06:40:41;;;;;;;8.32;5.90;;;20.90;13.50;;;;;;5090856;28;20398;-70
2023/06/24 06:43:06;;;;;;;5.90;5.22;;;21.10;99.90;;;;;;5071791;28;20402;-70
2023/06/24 06:45:32;;;;;;;7.27;5.00;;;21.20;12.40;;;;;;5091991;28;20426;-71
2023/06/24 06:47:58;;;;;;;8.70;5.67;;;21.30;99.90;;;;;;5088711;28;20454;-71
2023/06/24 06:50:23;;;;;;;8.02;5.15;;;21.40;1.00;;;;;;5087412;28;20402;-71
2023/06/24 06:52:49;;;;;;;7.67;5.07;;;21.40;99.90;;;;;;5072172;28;20415;-71
2023/06/24 06:55:14;;;;;;;7.43;5.07;;;21.50;1.00;;;;;;5081888;28;20930;-71
2023/06/24 06:57:40;;;;;;;7.18;5.15;;;21.60;1.00;;;;;;5069548;28;20818;-71
2023/06/24 07:00:07;;;;;;;6.07;4.97;;;21.70;99.90;;;;;;5085352;28;20402;-71
2023/06/24 07:02:32;;;;;;;10.77;5.78;;;21.80;99.90;;;;;;5067845;28;20506;-71
2023/06/24 07:04:59;;;;;;;7.63;5.77;;;21.80;99.90;;;;;;5082088;28;21301;-71
2023/06/24 07:07:24;;;;;;;6.97;5.45;;;21.90;1.00;;;;;;5080938;28;20404;-71
2023/06/24 07:09:50;;;;;;;8.73;5.77;;;21.90;99.90;;;;;;5071405;28;20460;-72
2023/06/24 07:12:16;;;;;;;8.70;5.63;;;22.00;99.90;;;;;;5071742;28;20493;-72
2023/06/24 07:14:41;;;;;;;9.27;6.03;;;22.10;99.90;;;;;;5081089;28;20405;-71
2023/06/24 07:17:07;;;;;;;9.13;6.00;;;22.20;75.10;;;;;;5083263;28;20804;-70
2023/06/24 07:19:33;;;;;;;7.65;5.75;;;22.20;67.60;;;;;;5075440;28;20404;-71
2023/06/24 07:21:59;;;;;;;8.80;5.70;;;22.30;14.50;;;;;;5084930;28;20417;-71
2023/06/24 07:24:24;;;;;;;7.70;5.80;;;22.40;1.00;;;;;;5074927;28;20476;-71
2023/06/24 07:26:50;;;;;;;7.80;5.78;;;22.40;99.90;;;;;;5069172;28;20395;-71
2023/06/24 07:29:15;;;;;;;8.77;6.20;;;22.50;99.90;;;;;;5081738;28;20398;-72
2023/06/24 07:31:41;;;;;;;7.97;6.20;;;22.60;99.90;;;;;;5072507;28;20399;-72
2023/06/24 07:34:06;;;;;;;7.95;5.80;;;22.60;99.90;;;;;;5073974;28;20441;-71
2023/06/24 07:36:32;;;;;;;8.13;6.82;;;22.70;99.90;;;;;;5088297;28;20486;-71
2023/06/24 07:38:58;;;;;;;9.73;6.50;;;22.80;99.90;;;;;;5081821;28;20400;-72
2023/06/24 07:41:23;;;;;;;8.82;6.15;;;22.80;1.00;;;;;;5071602;28;20470;-71
2023/06/24 07:43:49;;;;;;;8.38;6.13;;;22.80;1.00;;;;;;5076471;28;20509;-71
2023/06/24 07:46:15;;;;;;;9.20;6.10;;;22.90;1.00;;;;;;5087474;28;20429;-71
2023/06/24 07:48:40;;;;;;;7.57;6.30;;;22.90;1.00;;;;;;5084445;28;20808;-71
2023/06/24 07:51:06;;;;;;;8.37;6.03;;;22.90;99.90;;;;;;5078716;28;20406;-71
2023/06/24 07:53:33;;;;;;;9.50;6.07;;;23.00;99.90;;;;;;5089746;28;20402;-71
2023/06/24 07:55:59;;;;;;;9.98;5.93;;;23.00;99.90;;;;;;5090653;28;20733;-71
2023/06/24 07:58:24;;;;;;;8.27;5.82;;;23.20;99.90;;;;;;5086450;28;20409;-70
2023/06/24 08:00:50;;;;;;;6.57;5.53;;;23.20;99.90;;;;;;5088530;28;20428;-71
2023/06/24 08:03:16;;;;;;;8.17;6.00;;;23.50;99.90;;;;;;5093270;28;20402;-71
2023/06/24 08:05:42;;;;;;;9.18;6.15;;;23.70;99.90;;;;;;5087289;28;20425;-70
2023/06/24 08:08:08;;;;;;;7.20;5.70;;;23.90;99.90;;;;;;5091940;28;20844;-71
2023/06/24 08:10:34;;;;;;;8.83;5.70;;;24.00;99.90;;;;;;5087698;28;20897;-71
2023/06/24 08:13:00;;;;;;;8.82;5.82;;;24.00;80.40;;;;;;5088921;28;20450;-70
2023/06/24 08:15:25;;;;;;;7.40;5.13;;;24.10;40.90;;;;;;5090690;28;20406;-71
2023/06/24 08:17:52;;;;;;;6.53;5.10;;;24.20;18.30;;;;;;5092373;28;20787;-71
2023/06/24 08:20:19;;;;;;;7.57;5.70;;;24.30;1.00;;;;;;5090318;28;20417;-70
2023/06/24 08:22:44;;;;;;;6.85;5.18;;;24.40;1.00;;;;;;5092921;28;20887;-71
2023/06/24 08:25:10;;;;;;;9.47;6.20;;;24.40;1.00;;;;;;5091756;28;20436;-71
2023/06/24 08:27:36;;;;;;;7.45;5.70;;;24.50;1.00;;;;;;5092803;28;20792;-71
2023/06/24 08:30:04;;;;;;;6.72;5.03;;;24.50;1.00;;;;;;5089286;28;20418;-71
2023/06/24 08:32:29;;;;;;;7.30;5.28;;;24.60;1.00;;;;;;5090522;28;20444;-71
2023/06/24 08:34:55;;;;;;;7.77;5.57;;;24.60;1.00;;;;;;5089564;28;20493;-71
2023/06/24 08:37:20;;;;;;;9.40;5.50;;;24.70;1.00;;;;;;5091806;28;20413;-71
2023/06/24 08:39:46;;;;;;;6.25;5.15;;;24.80;1.00;;;;;;5089286;28;20532;-71
2023/06/24 08:42:11;;;;;;;7.22;5.60;;;24.80;1.00;;;;;;5091926;28;20406;-71
2023/06/24 08:44:37;;;;;;;8.17;6.20;;;24.90;1.00;;;;;;5091036;28;20448;-72
2023/06/24 08:47:03;;;;;;;8.63;5.53;;;25.00;99.90;;;;;;5091460;28;20755;-72
2023/06/24 08:49:30;;;;;;;7.15;5.55;;;25.00;99.90;;;;;;5090071;28;20409;-72
2023/06/24 08:52:03;;;;;;;9.38;6.63;;;25.00;99.90;;;;;;5091899;28;20910;-70
2023/06/24 08:54:32;;;;;;;9.38;6.00;;;25.10;99.90;;;;;;5079583;28;20476;-71
2023/06/24 08:57:01;;;;;;;9.48;6.30;;;25.10;99.90;;;;;;5088639;28;20422;-71
2023/06/24 08:59:27;;;;;;;7.70;5.95;;;25.20;99.90;;;;;;5090576;28;20406;-71
2023/06/24 09:01:52;;;;;;;7.38;5.80;;;25.30;99.90;;;;;;5073638;28;20423;-71
2023/06/24 09:04:18;;;;;;;8.87;6.07;;;25.40;99.90;;;;;;5090479;28;20503;-71
2023/06/24 09:06:44;;;;;;;9.20;6.47;;;25.50;99.90;;;;;;5091476;28;20520;-71
2023/06/24 09:09:23;;;;;;;9.43;6.30;;;25.70;99.90;;;;;;5089702;28;20499;-71
2023/06/24 09:11:53;;;;;;;10.07;6.37;;;25.80;99.90;;;;;;5089702;28;20430;-71
2023/06/24 09:14:19;;;;;;;9.65;5.35;;;25.80;99.90;;;;;;5090360;28;20957;-71
2023/06/24 09:17:01;;;;;;;7.93;6.00;;;25.80;99.90;;;;;;5091634;28;20510;-71
2023/06/24 09:19:29;;;;;;;7.60;5.57;;;25.80;99.90;;;;;;5092501;28;20430;-71
2023/06/24 09:21:56;;;;;;;7.05;5.15;;;25.80;99.90;;;;;;5089896;28;20413;-71
2023/06/24 09:24:21;;;;;;;8.65;5.72;;;25.70;99.90;;;;;;5090559;28;20847;-71
2023/06/24 09:26:47;;;;;;;7.88;5.75;;;25.80;99.90;;;;;;5089619;28;20438;-71
2023/06/24 09:29:15;;;;;;;11.67;5.47;;;25.70;99.90;;;;;;5090352;28;20410;-71
2023/06/24 09:31:55;;;;;;;7.05;5.28;;;25.90;99.90;;;;;;5088813;28;20418;-71
2023/06/24 09:34:21;;;;;;;7.07;4.82;;;26.10;99.90;;;;;;5089352;28;20398;-71
2023/06/24 09:36:54;;;;;;;6.85;4.57;;;26.40;99.90;;;;;;5092964;28;20406;-71
2023/06/24 09:39:22;;;;;;;7.88;5.00;;;26.80;99.90;;;;;;5092762;28;20519;-70
2023/06/24 09:41:50;;;;;;;7.03;5.15;;;27.10;99.90;;;;;;5089286;28;20414;-70
2023/06/24 09:44:18;;;;;;;7.25;4.82;;;27.40;99.90;;;;;;5089359;28;20060;-71
2023/06/24 09:46:44;;;;;;;;;;;27.60;99.90;;;;;;5090612;28;20509;-71
2023/06/24 09:49:10;;;;;;;;;;;27.80;99.90;;;;;;5077125;28;19923;-71
2023/06/24 09:51:39;;;;;;;;;;;28.10;99.90;;;;;;5092232;28;20034;-72
2023/06/24 09:54:08;;;;;;;;;;;28.40;99.90;;;;;;5090392;28;19916;-72
2023/06/24 09:56:36;;;;;;;;;;;28.50;99.90;;;;;;5091440;28;19977;-72
2023/06/24 09:59:03;;;;;;;;;;;28.60;99.90;;;;;;5090860;28;19920;-72
2023/06/24 10:01:28;;;;;;;;;;;28.70;99.90;;;;;;5089989;28;19920;-70
2023/06/24 10:03:54;;;;;;;7.15;3.90;;;28.90;99.90;;;;;;5072322;28;20343;-70
2023/06/24 10:06:20;;;;;;;6.07;3.67;;;29.00;99.90;;;;;;5067738;28;21103;-71
2023/06/24 10:08:46;;;;;;;6.57;4.22;;;29.30;99.90;;;;;;5087438;28;20942;-71
2023/06/24 10:11:11;;;;;;;6.78;3.78;;;29.40;99.90;;;;;;5087935;28;20401;-72
2023/06/24 10:13:37;;;;;;;5.93;3.60;;;29.50;99.90;;;;;;5088189;28;20768;-71
2023/06/24 10:16:03;;;;;;;6.55;4.43;;;29.60;99.90;;;;;;5088008;28;20417;-72
2023/06/24 10:18:36;;;;;;;6.55;3.58;;;29.40;99.90;;;;;;5087996;28;20406;-72
2023/06/24 10:21:02;;;;;;;;;;;29.30;99.90;;;;;;5090054;28;20066;-72
2023/06/24 10:23:52;;;;;;;;;;;29.40;99.90;;;;;;5076368;28;19927;-72
2023/06/24 10:26:28;;;;;;;7.63;3.13;;;29.60;99.90;;;;;;5075389;28;19963;-72
2023/06/24 10:29:06;;;;;;;5.13;2.90;;;29.80;99.90;;;;;;5087853;28;20459;-71
2023/06/24 10:31:40;;;;;;;5.00;2.90;;;29.90;99.90;;;;;;5088402;28;20406;-72
2023/06/24 10:34:27;;;;;;;4.57;2.90;;;29.80;99.90;;;;;;5087679;28;20406;-72
2023/06/24 10:37:02;;;;;;;4.03;2.67;;;29.80;99.90;;;;;;5086668;28;20433;-72
2023/06/24 10:39:56;;;;;;;4.70;2.83;;;29.80;99.90;;;;;;5087168;28;20448;-72
2023/06/24 10:42:37;;;;;;;5.50;3.15;;;29.60;99.90;;;;;;5086074;28;20436;-72
2023/06/24 10:45:08;;;;;;;5.80;2.95;;;29.40;99.90;;;;;;5086665;28;20807;-71
2023/06/24 10:47:34;;;;;;;6.20;3.10;;;29.10;99.90;;;;;;5087621;28;20444;-72
2023/06/24 10:50:00;;;;;;;5.05;3.03;;;29.10;99.90;;;;;;5071402;28;20410;-71
2023/06/24 10:52:26;;;;;;;4.43;2.50;;;29.10;99.90;;;;;;5088112;28;20942;-71
2023/06/24 10:54:53;;;;;;;5.05;2.70;;;29.00;99.90;;;;;;5087211;28;20449;-72
2023/06/24 10:57:24;;;;;;;4.33;2.90;;;29.00;99.90;;;;;;5084620;28;20419;-72
2023/06/24 10:59:50;;;;;;;3.90;2.65;;;29.30;99.90;;;;;;5069297;28;20533;-71
2023/06/24 11:02:17;;;;;;;;;;;29.70;99.90;;;;;;5077594;28;20036;-72
2023/06/24 11:04:42;;;;;;;;;;;30.00;99.90;;;;;;5087731;28;20389;-72
2023/06/24 11:07:08;;;;;;;;;;;30.10;99.90;;;;;;5078636;28;19928;-72
2023/06/24 11:09:33;;;;;;;;;;;30.00;99.90;;;;;;5073105;28;19986;-72
2023/06/24 11:11:59;;;;;;;;;;;29.90;99.90;;;;;;5078330;28;19924;-72
2023/06/24 11:14:24;;;;;;;;;;;29.80;99.90;;;;;;5077463;28;19920;-72
2023/06/24 11:16:50;;;;;;;;;;;29.80;99.90;;;;;;5077487;28;20302;-72
2023/06/24 11:19:16;;;;;;;;;;;29.90;99.90;;;;;;5087609;28;20026;-72
2023/06/24 11:21:41;;;;;;;;;;;29.80;99.90;;;;;;5089326;28;19920;-72
2023/06/24 11:24:07;;;;;;;;;;;29.80;99.90;;;;;;5079880;28;20053;-72
2023/06/24 11:26:32;;;;;;;;;;;29.90;99.90;;;;;;5076395;28;19920;-72
2023/06/24 11:28:58;;;;;;;;;;;30.20;99.90;;;;;;5073371;28;19978;-72
2023/06/24 11:31:25;;;;;;;;;;;30.20;99.90;;;;;;5090005;28;19927;-72
2023/06/24 11:33:50;;;;;;;;;;;30.20;99.90;;;;;;5090504;28;19920;-72
2023/06/24 11:36:16;;;;;;;;;;;30.40;99.90;;;;;;5092784;28;19931;-72
2023/06/24 11:38:42;;;;;;;;;;;30.80;99.90;;;;;;5088510;28;20035;-72
2023/06/24 11:41:07;;;;;;;;;;;31.20;99.90;;;;;;5096699;28;20440;-72
2023/06/24 11:43:33;;;;;;;;;;;31.50;99.90;;;;;;5093090;28;19920;-73
2023/06/24 11:45:58;;;;;;;;;;;31.70;99.90;;;;;;5093824;28;19924;-73
2023/06/24 11:48:28;;;;;;;4.72;2.25;;;31.90;99.90;;;;;;5075089;28;19932;-73
2023/06/24 11:50:57;;;;;;;4.38;2.28;;;32.20;99.90;;;;;;5090531;28;20934;-73
2023/06/24 11:53:50;;;;;;;4.38;2.70;;;32.40;99.90;;;;;;5090516;28;21185;-73
2023/06/24 11:56:15;;;;;;;4.15;2.58;;;32.50;99.90;;;;;;5081070;28;20775;-73
2023/06/24 11:58:43;;;;;;;3.83;2.15;;;32.40;99.90;;;;;;5090182;28;20414;-73
2023/06/24 12:01:09;;;;;;;3.33;2.15;;;32.40;99.90;;;;;;5093063;28;20406;-73
2023/06/24 12:03:34;;;;;;;4.27;2.23;;;32.40;99.90;;;;;;5097564;28;20404;-73
2023/06/24 12:06:00;;;;;;;2.80;2.00;;;32.70;99.90;;;;;;5092805;28;20439;-73
2023/06/24 12:08:26;;;;;;;4.70;2.10;;;32.90;99.90;;;;;;5097558;28;20396;-74
2023/06/24 12:10:51;;;;;;;4.20;2.40;;;32.80;99.90;;;;;;5091234;28;20562;-73
2023/06/24 12:13:17;;;;;;;4.70;2.58;;;32.80;99.90;;;;;;5097122;28;20411;-73
2023/06/24 12:15:43;;;;;;;3.92;2.42;;;32.90;99.90;;;;;;5077929;28;20772;-73
2023/06/24 12:18:09;;;;;;;4.23;2.30;;;33.10;99.90;;;;;;5098109;28;20412;-73
2023/06/24 12:20:36;;;;;;;4.07;2.23;;;33.20;99.90;;;;;;5090252;28;20406;-73
2023/06/24 12:23:05;;;;;;;4.20;2.50;;;33.20;99.90;;;;;;5097220;28;20944;-73
2023/06/24 12:25:31;;;;;;;4.57;2.42;;;32.90;99.90;;;;;;5096565;28;20429;-73
2023/06/24 12:27:59;;;;;;;5.20;2.42;;;32.60;99.90;;;;;;5094967;28;20396;-73
2023/06/24 12:30:24;;;;;;;5.43;3.13;;;32.10;99.90;;;;;;5096552;28;20409;-73
2023/06/24 12:32:50;;;;;;;5.75;2.70;;;31.70;99.90;;;;;;5096708;28;20407;-73
2023/06/24 12:35:16;;;;;;;4.30;2.60;;;31.30;99.90;;;;;;5094901;28;20470;-73
2023/06/24 12:37:42;;;;;;;4.40;2.70;;;31.10;99.90;;;;;;5093584;28;20504;-73
2023/06/24 12:40:08;;;;;;;3.45;2.80;;;31.00;99.90;;;;;;5095291;28;20439;-73
2023/06/24 12:42:34;;;;;;;5.65;3.30;;;31.00;99.90;;;;;;5100352;28;20774;-73
2023/06/24 12:45:00;;;;;;;6.22;2.95;;;31.10;99.90;;;;;;5095302;28;20509;-73